DLH561 FNBJ-EDDF
Flight info
| Callsign | DLH561 |
|---|---|
| Flight time | N/A |
| Altitude | 36000 |
| Route | VNA UR526 LIKAD UY339 MESIN UG861 DLA UA604 AS UR978 BOD UG362 EBA UG869 MAKEB UM858 DOPEL DCT DEC DCT UPDUT DCT CORSI DCT OKROK DCT AKUTI DCT TORTU DCT ERTEV DCT PEPAG DCT ABESI DCT LADOL T163 EMPAX EMPAX5D |
| Aircraft | A343/H-SDE2E3FGHIJ4J5M1RWXY/LB1D1 |
Departure
| Time | 2026-04-29 06:21 |
|---|---|
| Airport | Dr. Antonio Agostinho Neto International Airport (FNBJ) |
Arrival
| Time | N/A |
|---|---|
| Airport | Frankfurt Main Airport (EDDF) |
| Time | Latitude | Longitude | Altitude | Speed | Heading |
|---|---|---|---|---|---|
| 2026-04-29 06:11 | -9.05163 | 13.49646 | 552 ft | 3 kts | 325° |
| 2026-04-29 06:12 | -9.05172 | 13.49652 | 551 ft | 0 kts | 325° |
| 2026-04-29 06:13 | -9.05171 | 13.49652 | 551 ft | 0 kts | 325° |
| 2026-04-29 06:13 | -9.05169 | 13.49650 | 551 ft | 1 kts | 325° |
| 2026-04-29 06:14 | -9.05163 | 13.49646 | 552 ft | 1 kts | 325° |
| 2026-04-29 06:14 | -9.05155 | 13.49640 | 556 ft | 2 kts | 322° |
| 2026-04-29 06:14 | -9.05144 | 13.49613 | 546 ft | 8 kts | 283° |
| 2026-04-29 06:14 | -9.05158 | 13.49529 | 543 ft | 17 kts | 254° |
| 2026-04-29 06:15 | -9.05205 | 13.49417 | 543 ft | 18 kts | 233° |
| 2026-04-29 06:15 | -9.05291 | 13.49351 | 543 ft | 15 kts | 220° |
| 2026-04-29 06:15 | -9.05360 | 13.49274 | 543 ft | 15 kts | 231° |
| 2026-04-29 06:15 | -9.05439 | 13.49211 | 543 ft | 15 kts | 181° |
| 2026-04-29 06:16 | -9.05530 | 13.49275 | 543 ft | 20 kts | 142° |
| 2026-04-29 06:16 | -9.05656 | 13.49373 | 543 ft | 25 kts | 142° |
| 2026-04-29 06:16 | -9.05794 | 13.49480 | 543 ft | 25 kts | 142° |
| 2026-04-29 06:16 | -9.05935 | 13.49584 | 543 ft | 25 kts | 143° |
| 2026-04-29 06:17 | -9.06073 | 13.49691 | 544 ft | 25 kts | 142° |
| 2026-04-29 06:17 | -9.06198 | 13.49804 | 547 ft | 22 kts | 117° |
| 2026-04-29 06:17 | -9.06144 | 13.49928 | 546 ft | 22 kts | 52° |
| 2026-04-29 06:17 | -9.06041 | 13.50066 | 545 ft | 27 kts | 53° |
| 2026-04-29 06:18 | -9.05924 | 13.50225 | 545 ft | 29 kts | 53° |
| 2026-04-29 06:18 | -9.05809 | 13.50384 | 546 ft | 27 kts | 54° |
| 2026-04-29 06:18 | -9.05702 | 13.50535 | 547 ft | 26 kts | 55° |
| 2026-04-29 06:18 | -9.05597 | 13.50678 | 548 ft | 25 kts | 52° |
| 2026-04-29 06:19 | -9.05488 | 13.50823 | 548 ft | 26 kts | 52° |
| 2026-04-29 06:19 | -9.05407 | 13.50991 | 550 ft | 25 kts | 64° |
| 2026-04-29 06:19 | -9.05272 | 13.51129 | 548 ft | 31 kts | 43° |
| 2026-04-29 06:19 | -9.05126 | 13.51299 | 548 ft | 32 kts | 54° |
| 2026-04-29 06:20 | -9.05001 | 13.51474 | 549 ft | 30 kts | 54° |
| 2026-04-29 06:20 | -9.04902 | 13.51643 | 562 ft | 25 kts | 86° |
| 2026-04-29 06:20 | -9.04985 | 13.51738 | 566 ft | 15 kts | 148° |
| 2026-04-29 06:20 | -9.05083 | 13.51747 | 566 ft | 14 kts | 209° |
| 2026-04-29 06:21 | -9.05254 | 13.51506 | 566 ft | 75 kts | 235° |
| 2026-04-29 06:21 | -9.05661 | 13.50912 | 569 ft | 129 kts | 235° |
| 2026-04-29 06:21 | -9.06258 | 13.50033 | 598 ft | 166 kts | 236° |
| 2026-04-29 06:21 | -9.06919 | 13.49067 | 1203 ft | 162 kts | 236° |
| 2026-04-29 06:22 | -9.07377 | 13.48034 | 1619 ft | 170 kts | 267° |
| 2026-04-29 06:22 | -9.07025 | 13.46889 | 1850 ft | 182 kts | 306° |
| 2026-04-29 06:22 | -9.05995 | 13.45996 | 2193 ft | 197 kts | 324° |
| 2026-04-29 06:22 | -9.05005 | 13.45245 | 3166 ft | 176 kts | 319° |
| 2026-04-29 06:23 | -9.04069 | 13.44422 | 3871 ft | 181 kts | 318° |
| 2026-04-29 06:23 | -9.03055 | 13.43573 | 4353 ft | 199 kts | 321° |
| 2026-04-29 06:23 | -9.01933 | 13.42679 | 4950 ft | 211 kts | 321° |
| 2026-04-29 06:23 | -9.00720 | 13.41864 | 5646 ft | 216 kts | 338° |
| 2026-04-29 06:24 | -8.99266 | 13.41419 | 6244 ft | 229 kts | 343° |
| 2026-04-29 06:24 | -8.97750 | 13.40750 | 6541 ft | 240 kts | 322° |
| 2026-04-29 06:24 | -8.96630 | 13.39521 | 6605 ft | 240 kts | 301° |
| 2026-04-29 06:24 | -8.95705 | 13.38023 | 6706 ft | 265 kts | 307° |
| 2026-04-29 06:25 | -8.94407 | 13.36618 | 7118 ft | 275 kts | 317° |
| 2026-04-29 06:25 | -8.93073 | 13.35311 | 7837 ft | 274 kts | 310° |
| 2026-04-29 06:25 | -8.91913 | 13.33749 | 8399 ft | 279 kts | 303° |
| 2026-04-29 06:25 | -8.90805 | 13.32148 | 9070 ft | 280 kts | 308° |
| 2026-04-29 06:26 | -8.89489 | 13.30680 | 9671 ft | 283 kts | 314° |
| 2026-04-29 06:26 | -8.88137 | 13.29214 | 10217 ft | 286 kts | 309° |
| 2026-04-29 06:26 | -8.87087 | 13.27823 | 10725 ft | 287 kts | 305° |
| 2026-04-29 06:26 | -8.86083 | 13.26459 | 11153 ft | 290 kts | 308° |
| 2026-04-29 06:27 | -8.84735 | 13.24970 | 11649 ft | 292 kts | 319° |
| 2026-04-29 06:27 | -8.82968 | 13.23978 | 12128 ft | 292 kts | 341° |
| 2026-04-29 06:27 | -8.81004 | 13.23349 | 12387 ft | 304 kts | 339° |
| 2026-04-29 06:27 | -8.79017 | 13.22462 | 12426 ft | 322 kts | 332° |
| 2026-04-29 06:28 | -8.76956 | 13.21426 | 12454 ft | 340 kts | 335° |
| 2026-04-29 06:28 | -8.74697 | 13.20563 | 12786 ft | 347 kts | 341° |
| 2026-04-29 06:28 | -8.72424 | 13.19764 | 13446 ft | 346 kts | 338° |
| 2026-04-29 06:28 | -8.70211 | 13.18759 | 13843 ft | 351 kts | 333° |
| 2026-04-29 06:29 | -8.67997 | 13.17706 | 14399 ft | 353 kts | 336° |
| 2026-04-29 06:29 | -8.65694 | 13.16817 | 14861 ft | 356 kts | 340° |
| 2026-04-29 06:29 | -8.63366 | 13.15941 | 15355 ft | 359 kts | 337° |
| 2026-04-29 06:29 | -8.61079 | 13.14914 | 15859 ft | 361 kts | 334° |
| 2026-04-29 06:30 | -8.58770 | 13.13878 | 16347 ft | 364 kts | 337° |
| 2026-04-29 06:30 | -8.54027 | 13.12012 | 17329 ft | 369 kts | 336° |
| 2026-04-29 06:30 | -8.51660 | 13.10963 | 17820 ft | 372 kts | 335° |
| 2026-04-29 06:31 | -8.49300 | 13.09941 | 18311 ft | 375 kts | 337° |
| 2026-04-29 06:31 | -8.46849 | 13.08972 | 18831 ft | 377 kts | 338° |
| 2026-04-29 06:31 | -8.44406 | 13.07974 | 19312 ft | 380 kts | 336° |
| 2026-04-29 06:31 | -8.42006 | 13.06923 | 19817 ft | 383 kts | 336° |
| 2026-04-29 06:32 | -8.39503 | 13.05865 | 20309 ft | 386 kts | 338° |
| 2026-04-29 06:32 | -8.36994 | 13.04862 | 20773 ft | 389 kts | 338° |
| 2026-04-29 06:32 | -8.34518 | 13.03832 | 21244 ft | 392 kts | 336° |
| 2026-04-29 06:32 | -8.32011 | 13.02746 | 21716 ft | 395 kts | 336° |
| 2026-04-29 06:33 | -8.29459 | 13.01684 | 22175 ft | 397 kts | 338° |
| 2026-04-29 06:33 | -8.26885 | 13.00644 | 22619 ft | 400 kts | 337° |
| 2026-04-29 06:33 | -8.24304 | 12.99559 | 23057 ft | 403 kts | 336° |
| 2026-04-29 06:33 | -8.21714 | 12.98449 | 23472 ft | 405 kts | 337° |
| 2026-04-29 06:34 | -8.19097 | 12.97370 | 23880 ft | 408 kts | 338° |
| 2026-04-29 06:34 | -8.16453 | 12.96292 | 24278 ft | 411 kts | 337° |
| 2026-04-29 06:34 | -8.13810 | 12.95173 | 24677 ft | 413 kts | 336° |
| 2026-04-29 06:34 | -8.11149 | 12.94045 | 25064 ft | 416 kts | 337° |
| 2026-04-29 06:35 | -8.08461 | 12.92944 | 25438 ft | 418 kts | 338° |
| 2026-04-29 06:35 | -8.05762 | 12.91832 | 25796 ft | 420 kts | 337° |
| 2026-04-29 06:35 | -8.03060 | 12.90685 | 26144 ft | 423 kts | 336° |
| 2026-04-29 06:35 | -8.00329 | 12.89539 | 26492 ft | 425 kts | 337° |
| 2026-04-29 06:36 | -7.97581 | 12.88416 | 26835 ft | 427 kts | 337° |
| 2026-04-29 06:36 | -7.94824 | 12.87270 | 27171 ft | 430 kts | 336° |
| 2026-04-29 06:36 | -7.92064 | 12.86099 | 27507 ft | 432 kts | 336° |
| 2026-04-29 06:36 | -7.89275 | 12.84940 | 27837 ft | 434 kts | 337° |
| 2026-04-29 06:37 | -7.86475 | 12.83794 | 28146 ft | 436 kts | 337° |
| 2026-04-29 06:37 | -7.84923 | 12.83148 | 28341 ft | 438 kts | 337° |
| 2026-04-29 06:58 | -7.82212 | 12.82002 | 28658 ft | 440 kts | 336° |
| 2026-04-29 06:58 | -7.79377 | 12.80818 | 28984 ft | 442 kts | 337° |
| 2026-04-29 06:58 | -7.76517 | 12.79646 | 29284 ft | 444 kts | 337° |
| 2026-04-29 06:58 | -7.73650 | 12.78450 | 29593 ft | 446 kts | 336° |
| 2026-04-29 06:59 | -7.70788 | 12.77242 | 29903 ft | 449 kts | 337° |
| 2026-04-29 06:59 | -7.67894 | 12.76045 | 30212 ft | 451 kts | 337° |
| 2026-04-29 06:59 | -7.64977 | 12.74848 | 30509 ft | 453 kts | 337° |
| 2026-04-29 06:59 | -7.62068 | 12.73627 | 30815 ft | 455 kts | 336° |
| 2026-04-29 07:00 | -7.59141 | 12.72397 | 31105 ft | 457 kts | 337° |
| 2026-04-29 07:00 | -7.56187 | 12.71183 | 31391 ft | 459 kts | 337° |
| 2026-04-29 07:00 | -7.53218 | 12.69958 | 31681 ft | 461 kts | 337° |
| 2026-04-29 07:00 | -7.50250 | 12.68708 | 31966 ft | 463 kts | 337° |
| 2026-04-29 07:01 | -7.47273 | 12.67466 | 32454 ft | 459 kts | 337° |
| 2026-04-29 07:01 | -7.44306 | 12.66250 | 32660 ft | 464 kts | 337° |
| 2026-04-29 07:01 | -7.41301 | 12.65003 | 32696 ft | 471 kts | 337° |
| 2026-04-29 07:01 | -7.38298 | 12.63738 | 33417 ft | 458 kts | 337° |
| 2026-04-29 07:02 | -7.35401 | 12.62539 | 34241 ft | 449 kts | 337° |
| 2026-04-29 07:02 | -7.29522 | 12.60106 | 34273 ft | 464 kts | 337° |
| 2026-04-29 07:02 | -7.26528 | 12.58850 | 34494 ft | 465 kts | 337° |
| 2026-04-29 07:03 | -7.23539 | 12.57619 | 34789 ft | 466 kts | 337° |
| 2026-04-29 07:03 | -7.20530 | 12.56381 | 34945 ft | 469 kts | 337° |
| 2026-04-29 07:03 | -7.17509 | 12.55115 | 35196 ft | 469 kts | 337° |
| 2026-04-29 07:03 | -7.14490 | 12.53854 | 35402 ft | 471 kts | 337° |
| 2026-04-29 07:04 | -7.11440 | 12.52603 | 35556 ft | 474 kts | 337° |
| 2026-04-29 07:04 | -7.08393 | 12.51346 | 35800 ft | 474 kts | 337° |
| 2026-04-29 07:04 | -7.05342 | 12.50064 | 35957 ft | 476 kts | 337° |
| 2026-04-29 07:05 | -6.99156 | 12.47513 | 36000 ft | 486 kts | 337° |
| 2026-04-29 07:05 | -6.97326 | 12.46759 | 36005 ft | 485 kts | 337° |
| 2026-04-29 07:26 | -6.96653 | 12.46478 | 36003 ft | 483 kts | 337° |
| 2026-04-29 07:26 | -6.90568 | 12.43934 | 36004 ft | 463 kts | 337° |
| 2026-04-29 07:27 | -6.84673 | 12.41503 | 35996 ft | 456 kts | 337° |
| 2026-04-29 07:27 | -6.78797 | 12.39056 | 35998 ft | 458 kts | 337° |
| 2026-04-29 07:28 | -6.72889 | 12.36613 | 36006 ft | 460 kts | 336° |
| 2026-04-29 07:28 | -6.66975 | 12.34160 | 36003 ft | 460 kts | 338° |
| 2026-04-29 07:29 | -6.64506 | 12.33150 | 36007 ft | 460 kts | 337° |
| 2026-04-29 07:29 | -6.63884 | 12.32892 | 36006 ft | 460 kts | 337° |
| 2026-04-29 07:30 | -6.58939 | 12.30819 | 36009 ft | 459 kts | 337° |